Impacts METAR Board INFO
IDs:

KPHL - Philadelphia Intl, PA, US

Updated at: 2353 UTC 23 Feb 2018
Potential Impact None Slight Moderate High
Time23/11Z 23/12Z 23/13Z 23/14Z 23/15Z 23/16Z 23/17Z 23/18Z 23/19Z 23/20Z 23/21Z 23/22Z 23/23Z
VIS5 7 10 7 8 10 2.5 2 2 2.5 2 1.75 2
CIG16 18 12 90 8 9 7 6 10 6 6 5 6
CoverOVCOVCOVCOVCOVCOVCOVCOVCOVCOVCOVCOVCOVC
FltCatMVFRMVFRMVFRVFRIFRIFRIFRIFRIFRIFRIFRIFRIFR
WX-RA BR-RA-RA-RA-RA---DZ BR-DZ BR-DZ BR-DZ BR-DZ BR-DZ BRBR
WDir60706060707070507060308080
WSpd7 10 4 7 6 7 8 6 6 5 5 4 3
WGst-- -- -- -- -- -- -- -- -- -- -- -- --
Raw hourly METARs
KPHL 231059Z 06007KT 5SM -RA BR BKN016 OVC030 03/02 A3062 RMK AO2 P0001 T00280017 $
KPHL 231154Z 07010KT 7SM -RA SCT009 BKN018 OVC050 03/02 A3061 RMK AO2 SLP364 P0005 60007 70013 T00280017 10039 20028 50003
KPHL 231254Z 06004KT 10SM -RA OVC012 03/02 A3062 RMK AO2 SLP369 P0001 T00330017
KPHL 231359Z 06007KT 7SM -RA OVC090 03/02 A3062 RMK AO2 P0000 T00330022
KPHL 231454Z 07006KT 8SM -RA OVC008 03/03 A3060 RMK AO2 SLP360 P0007 60014 T00330028 56009
KPHL 231554Z 07007KT 10SM OVC009 04/03 A3057 RMK AO2 RAE00B28E37 SLP351 P0000 T00440033
KPHL 231654Z 07008KT 2 1/2SM -DZ BR OVC007 05/04 A3053 RMK AO2 DZB49 SLP337 P0000 T00500039
KPHL 231754Z 05006KT 2SM -DZ BR OVC006 05/04 A3050 RMK SLP327 P0000 60014 T00500044 10050 20028 56024
KPHL 231854Z 07006KT 2SM -DZ BR SCT004 OVC010 06/05 A3045 RMK AO2 SLP309 CIG 008V012 P0001 T00610050
KPHL 231954Z 06005KT 2 1/2SM -DZ BR OVC006 06/05 A3041 RMK AO2 SLP297 CIG 004V008 P0000 T00560050
KPHL 232054Z 03005KT 2SM -DZ BR OVC006 06/06 A3039 RMK AO2 SLP290 CIG 004V008 P0000 60001 T00610056 56037
KPHL 232154Z 08004KT 1 3/4SM -DZ BR BKN005 OVC013 06/06 A3037 RMK AO2 SLP282 P0001 T00610056
KPHL 232254Z 08003KT 2SM BR FEW003 BKN006 OVC017 06/06 A3037 RMK DZE29 SLP283 P0000 T00610056